sensor_id;sensor_type;location;lat;lon;timestamp;P1;durP1;ratioP1;P2;durP2;ratioP2
73296;SDS011;61524;50.938;11.396;2023-04-30T00:02:07;16.05;;;10.50;;
73296;SDS011;61524;50.938;11.396;2023-04-30T00:04:33;17.55;;;10.30;;
73296;SDS011;61524;50.938;11.396;2023-04-30T00:06:58;17.42;;;10.23;;
73296;SDS011;61524;50.938;11.396;2023-04-30T00:09:25;18.52;;;11.27;;
73296;SDS011;61524;50.938;11.396;2023-04-30T00:11:50;18.27;;;10.10;;
73296;SDS011;61524;50.938;11.396;2023-04-30T00:14:15;19.42;;;12.02;;
73296;SDS011;61524;50.938;11.396;2023-04-30T00:16:41;19.63;;;11.50;;
73296;SDS011;61524;50.938;11.396;2023-04-30T00:19:07;17.85;;;12.05;;
73296;SDS011;61524;50.938;11.396;2023-04-30T00:21:32;17.45;;;9.77;;
73296;SDS011;61524;50.938;11.396;2023-04-30T00:23:58;18.20;;;11.38;;
73296;SDS011;61524;50.938;11.396;2023-04-30T00:26:24;18.67;;;11.02;;
73296;SDS011;61524;50.938;11.396;2023-04-30T00:28:50;19.80;;;12.23;;
73296;SDS011;61524;50.938;11.396;2023-04-30T00:31:16;22.40;;;11.82;;
73296;SDS011;61524;50.938;11.396;2023-04-30T00:33:41;20.58;;;12.20;;
73296;SDS011;61524;50.938;11.396;2023-04-30T00:36:06;24.73;;;14.25;;
73296;SDS011;61524;50.938;11.396;2023-04-30T00:38:32;27.35;;;14.63;;
73296;SDS011;61524;50.938;11.396;2023-04-30T00:40:57;21.48;;;12.30;;
73296;SDS011;61524;50.938;11.396;2023-04-30T00:43:23;22.85;;;11.73;;
73296;SDS011;61524;50.938;11.396;2023-04-30T00:45:48;22.08;;;12.13;;
73296;SDS011;61524;50.938;11.396;2023-04-30T00:48:14;15.63;;;9.35;;
73296;SDS011;61524;50.938;11.396;2023-04-30T00:50:40;16.25;;;10.90;;
73296;SDS011;61524;50.938;11.396;2023-04-30T00:53:08;13.05;;;9.23;;
73296;SDS011;61524;50.938;11.396;2023-04-30T00:55:33;13.77;;;7.63;;
73296;SDS011;61524;50.938;11.396;2023-04-30T00:57:59;13.52;;;7.82;;
73296;SDS011;61524;50.938;11.396;2023-04-30T01:00:25;13.35;;;7.15;;
73296;SDS011;61524;50.938;11.396;2023-04-30T01:02:51;17.17;;;8.65;;
73296;SDS011;61524;50.938;11.396;2023-04-30T01:05:17;15.93;;;10.23;;
73296;SDS011;61524;50.938;11.396;2023-04-30T01:07:43;17.77;;;9.57;;
73296;SDS011;61524;50.938;11.396;2023-04-30T01:15:23;23.20;;;9.85;;
73296;SDS011;61524;50.938;11.396;2023-04-30T01:20:26;17.70;;;11.00;;
73296;SDS011;61524;50.938;11.396;2023-04-30T01:23:01;16.90;;;11.23;;
73296;SDS011;61524;50.938;11.396;2023-04-30T01:28:15;15.57;;;9.95;;
73296;SDS011;61524;50.938;11.396;2023-04-30T01:30:43;16.10;;;10.05;;
73296;SDS011;61524;50.938;11.396;2023-04-30T01:33:09;16.02;;;10.02;;
73296;SDS011;61524;50.938;11.396;2023-04-30T01:40:53;20.08;;;12.07;;
73296;SDS011;61524;50.938;11.396;2023-04-30T01:48:45;21.08;;;10.40;;
73296;SDS011;61524;50.938;11.396;2023-04-30T01:51:21;16.17;;;10.77;;
73296;SDS011;61524;50.938;11.396;2023-04-30T01:53:54;18.75;;;10.55;;
73296;SDS011;61524;50.938;11.396;2023-04-30T01:56:32;18.38;;;10.65;;
73296;SDS011;61524;50.938;11.396;2023-04-30T01:59:04;17.73;;;11.52;;
73296;SDS011;61524;50.938;11.396;2023-04-30T02:01:30;19.88;;;11.43;;
73296;SDS011;61524;50.938;11.396;2023-04-30T02:03:57;18.00;;;11.65;;
73296;SDS011;61524;50.938;11.396;2023-04-30T02:06:23;19.73;;;12.13;;
73296;SDS011;61524;50.938;11.396;2023-04-30T02:08:53;18.65;;;10.02;;
73296;SDS011;61524;50.938;11.396;2023-04-30T02:11:27;19.50;;;11.18;;
73296;SDS011;61524;50.938;11.396;2023-04-30T02:13:53;18.25;;;10.27;;
73296;SDS011;61524;50.938;11.396;2023-04-30T02:16:18;19.83;;;11.45;;
73296;SDS011;61524;50.938;11.396;2023-04-30T02:18:44;20.67;;;11.48;;
73296;SDS011;61524;50.938;11.396;2023-04-30T02:21:10;18.77;;;10.75;;
73296;SDS011;61524;50.938;11.396;2023-04-30T02:23:36;19.38;;;11.05;;
73296;SDS011;61524;50.938;11.396;2023-04-30T02:26:01;14.82;;;9.23;;
73296;SDS011;61524;50.938;11.396;2023-04-30T02:28:27;15.25;;;8.98;;
73296;SDS011;61524;50.938;11.396;2023-04-30T02:30:53;14.15;;;8.35;;
73296;SDS011;61524;50.938;11.396;2023-04-30T02:33:18;9.70;;;6.47;;
73296;SDS011;61524;50.938;11.396;2023-04-30T02:35:44;19.45;;;10.57;;
73296;SDS011;61524;50.938;11.396;2023-04-30T02:38:10;20.52;;;10.40;;
73296;SDS011;61524;50.938;11.396;2023-04-30T02:40:35;18.90;;;10.35;;
73296;SDS011;61524;50.938;11.396;2023-04-30T02:43:01;19.10;;;10.93;;
73296;SDS011;61524;50.938;11.396;2023-04-30T02:45:26;19.83;;;10.70;;
73296;SDS011;61524;50.938;11.396;2023-04-30T02:47:52;23.50;;;13.05;;
73296;SDS011;61524;50.938;11.396;2023-04-30T02:50:17;18.40;;;12.10;;
73296;SDS011;61524;50.938;11.396;2023-04-30T02:52:44;21.05;;;11.73;;
73296;SDS011;61524;50.938;11.396;2023-04-30T02:55:11;22.60;;;10.75;;
73296;SDS011;61524;50.938;11.396;2023-04-30T02:57:36;19.73;;;11.93;;
73296;SDS011;61524;50.938;11.396;2023-04-30T03:00:03;20.20;;;10.82;;
73296;SDS011;61524;50.938;11.396;2023-04-30T03:02:29;19.65;;;11.40;;
73296;SDS011;61524;50.938;11.396;2023-04-30T03:04:55;18.90;;;12.07;;
73296;SDS011;61524;50.938;11.396;2023-04-30T03:07:20;18.33;;;11.20;;
73296;SDS011;61524;50.938;11.396;2023-04-30T03:09:46;15.40;;;9.70;;
73296;SDS011;61524;50.938;11.396;2023-04-30T03:12:11;15.20;;;9.88;;
73296;SDS011;61524;50.938;11.396;2023-04-30T03:14:38;17.02;;;9.93;;
73296;SDS011;61524;50.938;11.396;2023-04-30T03:17:04;17.05;;;10.07;;
73296;SDS011;61524;50.938;11.396;2023-04-30T03:19:29;16.77;;;10.18;;
73296;SDS011;61524;50.938;11.396;2023-04-30T03:21:55;17.42;;;9.73;;
73296;SDS011;61524;50.938;11.396;2023-04-30T03:24:21;17.40;;;9.60;;
73296;SDS011;61524;50.938;11.396;2023-04-30T03:26:46;19.90;;;10.50;;
73296;SDS011;61524;50.938;11.396;2023-04-30T03:29:12;18.58;;;11.15;;
73296;SDS011;61524;50.938;11.396;2023-04-30T03:31:37;18.92;;;9.95;;
73296;SDS011;61524;50.938;11.396;2023-04-30T03:34:03;17.17;;;9.95;;
73296;SDS011;61524;50.938;11.396;2023-04-30T03:36:28;19.23;;;10.43;;
73296;SDS011;61524;50.938;11.396;2023-04-30T03:38:53;19.45;;;10.70;;
73296;SDS011;61524;50.938;11.396;2023-04-30T03:41:19;19.65;;;11.75;;
73296;SDS011;61524;50.938;11.396;2023-04-30T03:43:44;16.95;;;10.27;;
73296;SDS011;61524;50.938;11.396;2023-04-30T03:46:10;15.77;;;9.50;;
73296;SDS011;61524;50.938;11.396;2023-04-30T03:48:36;16.88;;;9.65;;
73296;SDS011;61524;50.938;11.396;2023-04-30T03:51:01;18.90;;;10.35;;
73296;SDS011;61524;50.938;11.396;2023-04-30T03:53:26;20.33;;;10.23;;
73296;SDS011;61524;50.938;11.396;2023-04-30T03:55:52;22.27;;;10.38;;
73296;SDS011;61524;50.938;11.396;2023-04-30T03:58:18;19.17;;;10.15;;
73296;SDS011;61524;50.938;11.396;2023-04-30T04:00:44;19.15;;;11.02;;
73296;SDS011;61524;50.938;11.396;2023-04-30T04:03:12;19.33;;;10.65;;
73296;SDS011;61524;50.938;11.396;2023-04-30T04:05:38;17.88;;;11.27;;
73296;SDS011;61524;50.938;11.396;2023-04-30T04:08:03;22.70;;;11.48;;
73296;SDS011;61524;50.938;11.396;2023-04-30T04:10:30;20.08;;;10.68;;
73296;SDS011;61524;50.938;11.396;2023-04-30T04:12:56;21.02;;;11.02;;
73296;SDS011;61524;50.938;11.396;2023-04-30T04:15:21;17.88;;;10.73;;
73296;SDS011;61524;50.938;11.396;2023-04-30T04:17:47;19.77;;;11.55;;
73296;SDS011;61524;50.938;11.396;2023-04-30T04:20:13;17.15;;;9.98;;
73296;SDS011;61524;50.938;11.396;2023-04-30T04:22:38;16.83;;;9.65;;
73296;SDS011;61524;50.938;11.396;2023-04-30T04:25:04;18.58;;;11.88;;
73296;SDS011;61524;50.938;11.396;2023-04-30T04:27:31;20.77;;;10.25;;
73296;SDS011;61524;50.938;11.396;2023-04-30T04:29:56;14.20;;;9.13;;
73296;SDS011;61524;50.938;11.396;2023-04-30T04:32:21;15.57;;;10.18;;
73296;SDS011;61524;50.938;11.396;2023-04-30T04:34:47;18.05;;;9.90;;
73296;SDS011;61524;50.938;11.396;2023-04-30T04:37:13;17.40;;;9.80;;
73296;SDS011;61524;50.938;11.396;2023-04-30T04:39:39;15.38;;;9.25;;
73296;SDS011;61524;50.938;11.396;2023-04-30T04:42:05;16.35;;;8.52;;
73296;SDS011;61524;50.938;11.396;2023-04-30T04:44:30;15.38;;;8.65;;
73296;SDS011;61524;50.938;11.396;2023-04-30T04:46:56;16.40;;;9.32;;
73296;SDS011;61524;50.938;11.396;2023-04-30T04:49:22;17.55;;;9.88;;
73296;SDS011;61524;50.938;11.396;2023-04-30T04:51:48;17.95;;;9.98;;
73296;SDS011;61524;50.938;11.396;2023-04-30T04:54:13;16.67;;;10.05;;
73296;SDS011;61524;50.938;11.396;2023-04-30T04:56:39;16.05;;;9.02;;
73296;SDS011;61524;50.938;11.396;2023-04-30T04:59:04;15.45;;;9.57;;
73296;SDS011;61524;50.938;11.396;2023-04-30T05:01:29;15.23;;;8.45;;
73296;SDS011;61524;50.938;11.396;2023-04-30T05:03:55;15.75;;;9.30;;
73296;SDS011;61524;50.938;11.396;2023-04-30T05:06:21;17.58;;;9.52;;
73296;SDS011;61524;50.938;11.396;2023-04-30T05:08:46;16.40;;;8.75;;
73296;SDS011;61524;50.938;11.396;2023-04-30T05:11:12;14.02;;;8.52;;
73296;SDS011;61524;50.938;11.396;2023-04-30T05:13:37;14.20;;;8.45;;
73296;SDS011;61524;50.938;11.396;2023-04-30T05:16:03;14.25;;;8.27;;
73296;SDS011;61524;50.938;11.396;2023-04-30T05:18:28;13.65;;;9.00;;
73296;SDS011;61524;50.938;11.396;2023-04-30T05:20:54;13.27;;;8.73;;
73296;SDS011;61524;50.938;11.396;2023-04-30T05:23:19;13.98;;;8.55;;
73296;SDS011;61524;50.938;11.396;2023-04-30T05:25:45;15.93;;;9.85;;
73296;SDS011;61524;50.938;11.396;2023-04-30T05:28:10;14.70;;;8.40;;
73296;SDS011;61524;50.938;11.396;2023-04-30T05:30:36;14.07;;;8.82;;
73296;SDS011;61524;50.938;11.396;2023-04-30T05:33:01;14.23;;;7.53;;
73296;SDS011;61524;50.938;11.396;2023-04-30T05:35:27;13.68;;;8.02;;
73296;SDS011;61524;50.938;11.396;2023-04-30T05:37:54;15.68;;;7.47;;
73296;SDS011;61524;50.938;11.396;2023-04-30T05:40:19;11.27;;;6.60;;
73296;SDS011;61524;50.938;11.396;2023-04-30T05:42:45;11.00;;;6.72;;
73296;SDS011;61524;50.938;11.396;2023-04-30T05:45:11;11.40;;;7.35;;
73296;SDS011;61524;50.938;11.396;2023-04-30T05:47:38;9.85;;;6.05;;
73296;SDS011;61524;50.938;11.396;2023-04-30T05:50:04;11.55;;;6.68;;
73296;SDS011;61524;50.938;11.396;2023-04-30T05:52:31;11.85;;;6.75;;
73296;SDS011;61524;50.938;11.396;2023-04-30T05:54:56;11.02;;;6.78;;
73296;SDS011;61524;50.938;11.396;2023-04-30T05:57:22;16.35;;;6.63;;
73296;SDS011;61524;50.938;11.396;2023-04-30T05:59:47;9.68;;;6.03;;
73296;SDS011;61524;50.938;11.396;2023-04-30T06:02:13;9.93;;;5.30;;
73296;SDS011;61524;50.938;11.396;2023-04-30T06:04:39;10.73;;;5.88;;
73296;SDS011;61524;50.938;11.396;2023-04-30T06:07:04;7.85;;;4.47;;
73296;SDS011;61524;50.938;11.396;2023-04-30T06:09:29;8.63;;;4.82;;
73296;SDS011;61524;50.938;11.396;2023-04-30T06:11:55;8.88;;;4.28;;
73296;SDS011;61524;50.938;11.396;2023-04-30T06:14:21;7.25;;;3.92;;
73296;SDS011;61524;50.938;11.396;2023-04-30T06:16:46;7.20;;;4.53;;
73296;SDS011;61524;50.938;11.396;2023-04-30T06:19:13;8.35;;;5.05;;
73296;SDS011;61524;50.938;11.396;2023-04-30T06:21:39;7.72;;;4.00;;
73296;SDS011;61524;50.938;11.396;2023-04-30T06:24:04;9.20;;;4.22;;
73296;SDS011;61524;50.938;11.396;2023-04-30T06:26:30;9.40;;;5.00;;
73296;SDS011;61524;50.938;11.396;2023-04-30T06:28:56;7.68;;;3.97;;
73296;SDS011;61524;50.938;11.396;2023-04-30T06:31:22;9.68;;;5.28;;
73296;SDS011;61524;50.938;11.396;2023-04-30T06:33:47;8.93;;;4.20;;
73296;SDS011;61524;50.938;11.396;2023-04-30T06:36:14;6.53;;;3.72;;
73296;SDS011;61524;50.938;11.396;2023-04-30T06:38:43;9.05;;;4.72;;
73296;SDS011;61524;50.938;11.396;2023-04-30T06:41:18;7.68;;;4.15;;
73296;SDS011;61524;50.938;11.396;2023-04-30T06:43:44;6.03;;;3.35;;
73296;SDS011;61524;50.938;11.396;2023-04-30T06:46:10;6.90;;;3.90;;
73296;SDS011;61524;50.938;11.396;2023-04-30T06:48:35;6.82;;;3.90;;
73296;SDS011;61524;50.938;11.396;2023-04-30T06:51:01;6.65;;;3.60;;
73296;SDS011;61524;50.938;11.396;2023-04-30T06:53:26;6.65;;;3.60;;
73296;SDS011;61524;50.938;11.396;2023-04-30T06:55:52;6.07;;;3.10;;
73296;SDS011;61524;50.938;11.396;2023-04-30T07:00:44;5.47;;;3.00;;
73296;SDS011;61524;50.938;11.396;2023-04-30T07:03:09;8.68;;;3.20;;
73296;SDS011;61524;50.938;11.396;2023-04-30T07:05:34;4.88;;;2.95;;
73296;SDS011;61524;50.938;11.396;2023-04-30T07:08:00;6.55;;;3.25;;
73296;SDS011;61524;50.938;11.396;2023-04-30T07:10:27;6.00;;;3.10;;
73296;SDS011;61524;50.938;11.396;2023-04-30T07:12:53;6.88;;;3.35;;
73296;SDS011;61524;50.938;11.396;2023-04-30T07:15:19;10.30;;;4.32;;
73296;SDS011;61524;50.938;11.396;2023-04-30T07:17:44;7.47;;;3.60;;
73296;SDS011;61524;50.938;11.396;2023-04-30T07:20:10;7.43;;;3.70;;
73296;SDS011;61524;50.938;11.396;2023-04-30T07:22:38;7.43;;;4.10;;
73296;SDS011;61524;50.938;11.396;2023-04-30T07:25:04;6.78;;;3.20;;
73296;SDS011;61524;50.938;11.396;2023-04-30T07:27:30;8.50;;;3.10;;
73296;SDS011;61524;50.938;11.396;2023-04-30T07:29:55;5.70;;;3.50;;
73296;SDS011;61524;50.938;11.396;2023-04-30T07:32:21;7.90;;;3.45;;
73296;SDS011;61524;50.938;11.396;2023-04-30T07:34:46;7.07;;;3.38;;
73296;SDS011;61524;50.938;11.396;2023-04-30T07:37:12;6.47;;;3.30;;
73296;SDS011;61524;50.938;11.396;2023-04-30T07:39:38;5.50;;;3.38;;
73296;SDS011;61524;50.938;11.396;2023-04-30T07:42:04;6.35;;;3.90;;
73296;SDS011;61524;50.938;11.396;2023-04-30T07:44:30;7.53;;;3.05;;
73296;SDS011;61524;50.938;11.396;2023-04-30T07:46:56;6.13;;;3.13;;
73296;SDS011;61524;50.938;11.396;2023-04-30T07:49:21;10.63;;;3.58;;
73296;SDS011;61524;50.938;11.396;2023-04-30T07:51:47;4.97;;;2.70;;
73296;SDS011;61524;50.938;11.396;2023-04-30T07:54:12;7.55;;;3.30;;
73296;SDS011;61524;50.938;11.396;2023-04-30T07:56:38;6.13;;;3.50;;
73296;SDS011;61524;50.938;11.396;2023-04-30T07:59:04;5.35;;;3.42;;
73296;SDS011;61524;50.938;11.396;2023-04-30T08:01:30;6.47;;;3.22;;
73296;SDS011;61524;50.938;11.396;2023-04-30T08:03:56;6.28;;;3.45;;
73296;SDS011;61524;50.938;11.396;2023-04-30T08:06:21;10.05;;;4.35;;
73296;SDS011;61524;50.938;11.396;2023-04-30T08:08:47;7.55;;;3.13;;
73296;SDS011;61524;50.938;11.396;2023-04-30T08:11:12;4.78;;;2.92;;
73296;SDS011;61524;50.938;11.396;2023-04-30T08:13:39;6.35;;;3.53;;
73296;SDS011;61524;50.938;11.396;2023-04-30T08:16:05;7.65;;;3.55;;
73296;SDS011;61524;50.938;11.396;2023-04-30T08:18:31;7.00;;;3.10;;
73296;SDS011;61524;50.938;11.396;2023-04-30T08:20:56;7.47;;;3.42;;
73296;SDS011;61524;50.938;11.396;2023-04-30T08:23:22;6.60;;;3.47;;
73296;SDS011;61524;50.938;11.396;2023-04-30T08:25:47;8.38;;;3.90;;
73296;SDS011;61524;50.938;11.396;2023-04-30T08:28:13;7.47;;;3.42;;
73296;SDS011;61524;50.938;11.396;2023-04-30T08:30:38;6.22;;;3.03;;
73296;SDS011;61524;50.938;11.396;2023-04-30T08:33:04;4.78;;;2.70;;
73296;SDS011;61524;50.938;11.396;2023-04-30T08:35:29;5.75;;;2.42;;
73296;SDS011;61524;50.938;11.396;2023-04-30T08:37:55;4.07;;;2.20;;
73296;SDS011;61524;50.938;11.396;2023-04-30T08:40:20;8.73;;;2.80;;
73296;SDS011;61524;50.938;11.396;2023-04-30T08:42:52;6.00;;;2.97;;
73296;SDS011;61524;50.938;11.396;2023-04-30T08:45:29;6.10;;;2.55;;
73296;SDS011;61524;50.938;11.396;2023-04-30T08:47:56;5.85;;;2.70;;
73296;SDS011;61524;50.938;11.396;2023-04-30T08:50:24;5.32;;;2.63;;
73296;SDS011;61524;50.938;11.396;2023-04-30T08:52:50;5.53;;;2.30;;
73296;SDS011;61524;50.938;11.396;2023-04-30T08:55:15;6.43;;;2.63;;
73296;SDS011;61524;50.938;11.396;2023-04-30T08:57:41;5.85;;;2.72;;
73296;SDS011;61524;50.938;11.396;2023-04-30T09:00:06;4.72;;;2.03;;
73296;SDS011;61524;50.938;11.396;2023-04-30T09:02:32;5.32;;;2.50;;
73296;SDS011;61524;50.938;11.396;2023-04-30T09:04:58;6.85;;;2.38;;
73296;SDS011;61524;50.938;11.396;2023-04-30T09:07:24;5.80;;;2.22;;
73296;SDS011;61524;50.938;11.396;2023-04-30T09:09:53;5.25;;;2.15;;
73296;SDS011;61524;50.938;11.396;2023-04-30T09:12:18;6.20;;;2.90;;
73296;SDS011;61524;50.938;11.396;2023-04-30T09:15:02;5.25;;;2.60;;
73296;SDS011;61524;50.938;11.396;2023-04-30T09:17:30;5.53;;;2.25;;
73296;SDS011;61524;50.938;11.396;2023-04-30T09:20:08;6.85;;;2.60;;
73296;SDS011;61524;50.938;11.396;2023-04-30T09:22:36;5.10;;;2.42;;
73296;SDS011;61524;50.938;11.396;2023-04-30T09:25:03;7.07;;;2.22;;
73296;SDS011;61524;50.938;11.396;2023-04-30T09:27:29;6.55;;;2.20;;
73296;SDS011;61524;50.938;11.396;2023-04-30T09:29:55;5.65;;;2.25;;
73296;SDS011;61524;50.938;11.396;2023-04-30T09:32:20;5.47;;;2.30;;
73296;SDS011;61524;50.938;11.396;2023-04-30T09:34:46;6.00;;;2.50;;
73296;SDS011;61524;50.938;11.396;2023-04-30T09:37:12;5.18;;;2.50;;
73296;SDS011;61524;50.938;11.396;2023-04-30T09:39:48;8.43;;;2.35;;
73296;SDS011;61524;50.938;11.396;2023-04-30T09:42:14;5.68;;;2.55;;
73296;SDS011;61524;50.938;11.396;2023-04-30T09:44:41;6.18;;;2.22;;
73296;SDS011;61524;50.938;11.396;2023-04-30T09:49:57;7.72;;;2.22;;
73296;SDS011;61524;50.938;11.396;2023-04-30T09:52:23;7.75;;;2.25;;
73296;SDS011;61524;50.938;11.396;2023-04-30T09:54:49;4.80;;;1.83;;
73296;SDS011;61524;50.938;11.396;2023-04-30T09:57:15;6.80;;;2.40;;
73296;SDS011;61524;50.938;11.396;2023-04-30T09:59:44;3.60;;;2.00;;
73296;SDS011;61524;50.938;11.396;2023-04-30T10:02:12;6.55;;;2.78;;
73296;SDS011;61524;50.938;11.396;2023-04-30T10:04:43;6.82;;;2.53;;
73296;SDS011;61524;50.938;11.396;2023-04-30T10:07:15;6.13;;;2.22;;
73296;SDS011;61524;50.938;11.396;2023-04-30T10:09:47;4.35;;;1.95;;
73296;SDS011;61524;50.938;11.396;2023-04-30T10:12:43;5.78;;;2.13;;
73296;SDS011;61524;50.938;11.396;2023-04-30T10:15:15;9.13;;;2.53;;
73296;SDS011;61524;50.938;11.396;2023-04-30T10:18:01;7.30;;;2.60;;
73296;SDS011;61524;50.938;11.396;2023-04-30T10:20:32;4.63;;;2.30;;
73296;SDS011;61524;50.938;11.396;2023-04-30T10:23:00;6.65;;;3.47;;
73296;SDS011;61524;50.938;11.396;2023-04-30T10:25:26;5.32;;;2.65;;
73296;SDS011;61524;50.938;11.396;2023-04-30T10:30:18;6.80;;;3.25;;
73296;SDS011;61524;50.938;11.396;2023-04-30T10:35:25;6.90;;;3.15;;
73296;SDS011;61524;50.938;11.396;2023-04-30T10:37:54;6.32;;;2.70;;
73296;SDS011;61524;50.938;11.396;2023-04-30T10:40:26;6.25;;;2.75;;
73296;SDS011;61524;50.938;11.396;2023-04-30T10:42:52;5.07;;;2.67;;
73296;SDS011;61524;50.938;11.396;2023-04-30T10:45:37;6.50;;;2.83;;
73296;SDS011;61524;50.938;11.396;2023-04-30T10:48:05;6.05;;;3.20;;
73296;SDS011;61524;50.938;11.396;2023-04-30T10:50:31;5.43;;;3.15;;
73296;SDS011;61524;50.938;11.396;2023-04-30T10:53:00;6.32;;;3.58;;
73296;SDS011;61524;50.938;11.396;2023-04-30T10:55:28;8.05;;;3.20;;
73296;SDS011;61524;50.938;11.396;2023-04-30T10:57:54;5.53;;;3.00;;
73296;SDS011;61524;50.938;11.396;2023-04-30T11:00:26;6.97;;;3.08;;
73296;SDS011;61524;50.938;11.396;2023-04-30T11:02:56;5.30;;;2.90;;
73296;SDS011;61524;50.938;11.396;2023-04-30T11:05:45;5.30;;;2.65;;
73296;SDS011;61524;50.938;11.396;2023-04-30T11:08:10;5.82;;;2.90;;
73296;SDS011;61524;50.938;11.396;2023-04-30T11:10:36;4.03;;;2.33;;
73296;SDS011;61524;50.938;11.396;2023-04-30T11:13:02;4.82;;;2.33;;
73296;SDS011;61524;50.938;11.396;2023-04-30T11:15:33;6.82;;;2.78;;
73296;SDS011;61524;50.938;11.396;2023-04-30T11:18:06;5.68;;;2.50;;
73296;SDS011;61524;50.938;11.396;2023-04-30T11:20:32;5.68;;;2.60;;
73296;SDS011;61524;50.938;11.396;2023-04-30T11:23:12;5.65;;;2.33;;
73296;SDS011;61524;50.938;11.396;2023-04-30T11:25:39;5.70;;;2.08;;
73296;SDS011;61524;50.938;11.396;2023-04-30T11:28:07;5.65;;;1.90;;
73296;SDS011;61524;50.938;11.396;2023-04-30T11:30:56;4.57;;;2.10;;
73296;SDS011;61524;50.938;11.396;2023-04-30T11:33:24;6.30;;;2.50;;
73296;SDS011;61524;50.938;11.396;2023-04-30T11:35:51;5.35;;;2.22;;
73296;SDS011;61524;50.938;11.396;2023-04-30T11:41:02;5.18;;;1.75;;
73296;SDS011;61524;50.938;11.396;2023-04-30T11:43:29;8.68;;;2.40;;
73296;SDS011;61524;50.938;11.396;2023-04-30T11:48:36;3.75;;;1.98;;
73296;SDS011;61524;50.938;11.396;2023-04-30T11:51:23;6.00;;;2.05;;
73296;SDS011;61524;50.938;11.396;2023-04-30T11:53:51;8.57;;;2.40;;
73296;SDS011;61524;50.938;11.396;2023-04-30T11:56:18;7.25;;;2.63;;
73296;SDS011;61524;50.938;11.396;2023-04-30T11:58:46;7.47;;;2.60;;
73296;SDS011;61524;50.938;11.396;2023-04-30T12:03:39;6.25;;;2.15;;
73296;SDS011;61524;50.938;11.396;2023-04-30T12:06:09;5.07;;;2.17;;
73296;SDS011;61524;50.938;11.396;2023-04-30T12:08:36;6.70;;;2.03;;
73296;SDS011;61524;50.938;11.396;2023-04-30T12:11:02;5.68;;;2.17;;
73296;SDS011;61524;50.938;11.396;2023-04-30T12:13:31;5.63;;;2.05;;
73296;SDS011;61524;50.938;11.396;2023-04-30T12:15:58;5.68;;;2.38;;
73296;SDS011;61524;50.938;11.396;2023-04-30T12:18:24;7.15;;;2.05;;
73296;SDS011;61524;50.938;11.396;2023-04-30T12:20:50;5.25;;;1.80;;
73296;SDS011;61524;50.938;11.396;2023-04-30T12:23:16;4.38;;;1.88;;
73296;SDS011;61524;50.938;11.396;2023-04-30T12:25:42;4.85;;;2.30;;
73296;SDS011;61524;50.938;11.396;2023-04-30T12:28:08;5.70;;;2.20;;
73296;SDS011;61524;50.938;11.396;2023-04-30T12:30:34;6.78;;;2.15;;
73296;SDS011;61524;50.938;11.396;2023-04-30T12:33:00;5.22;;;1.80;;
73296;SDS011;61524;50.938;11.396;2023-04-30T12:35:27;10.98;;;2.35;;
73296;SDS011;61524;50.938;11.396;2023-04-30T12:38:05;6.93;;;1.92;;
73296;SDS011;61524;50.938;11.396;2023-04-30T12:40:32;7.15;;;1.80;;
73296;SDS011;61524;50.938;11.396;2023-04-30T12:43:02;8.13;;;2.28;;
73296;SDS011;61524;50.938;11.396;2023-04-30T12:48:13;3.75;;;1.35;;
73296;SDS011;61524;50.938;11.396;2023-04-30T12:50:39;4.13;;;1.60;;
73296;SDS011;61524;50.938;11.396;2023-04-30T12:53:05;6.82;;;2.10;;
73296;SDS011;61524;50.938;11.396;2023-04-30T12:55:34;4.13;;;1.50;;
73296;SDS011;61524;50.938;11.396;2023-04-30T12:58:11;6.45;;;2.10;;
73296;SDS011;61524;50.938;11.396;2023-04-30T13:00:56;8.55;;;2.05;;
73296;SDS011;61524;50.938;11.396;2023-04-30T13:03:23;4.35;;;1.40;;
73296;SDS011;61524;50.938;11.396;2023-04-30T13:05:51;6.78;;;2.00;;
73296;SDS011;61524;50.938;11.396;2023-04-30T13:08:18;6.05;;;1.85;;
73296;SDS011;61524;50.938;11.396;2023-04-30T13:10:45;5.68;;;1.80;;
73296;SDS011;61524;50.938;11.396;2023-04-30T13:13:12;6.93;;;1.55;;
73296;SDS011;61524;50.938;11.396;2023-04-30T13:15:39;5.05;;;1.58;;
73296;SDS011;61524;50.938;11.396;2023-04-30T13:18:05;6.28;;;1.48;;
73296;SDS011;61524;50.938;11.396;2023-04-30T13:20:33;5.38;;;1.85;;
73296;SDS011;61524;50.938;11.396;2023-04-30T13:22:59;4.82;;;1.65;;
73296;SDS011;61524;50.938;11.396;2023-04-30T13:25:25;5.18;;;1.73;;
73296;SDS011;61524;50.938;11.396;2023-04-30T13:27:50;3.33;;;1.40;;
73296;SDS011;61524;50.938;11.396;2023-04-30T13:30:15;4.18;;;1.50;;
73296;SDS011;61524;50.938;11.396;2023-04-30T13:32:41;4.00;;;1.60;;
73296;SDS011;61524;50.938;11.396;2023-04-30T13:35:07;2.78;;;1.63;;
73296;SDS011;61524;50.938;11.396;2023-04-30T13:37:33;4.82;;;1.55;;
73296;SDS011;61524;50.938;11.396;2023-04-30T13:39:59;3.33;;;1.30;;
73296;SDS011;61524;50.938;11.396;2023-04-30T13:42:25;5.90;;;2.00;;
73296;SDS011;61524;50.938;11.396;2023-04-30T13:44:51;6.60;;;1.70;;
73296;SDS011;61524;50.938;11.396;2023-04-30T13:47:17;4.57;;;1.65;;
73296;SDS011;61524;50.938;11.396;2023-04-30T13:49:42;5.88;;;1.83;;
73296;SDS011;61524;50.938;11.396;2023-04-30T13:52:08;4.18;;;1.25;;
73296;SDS011;61524;50.938;11.396;2023-04-30T13:54:33;4.22;;;1.38;;
73296;SDS011;61524;50.938;11.396;2023-04-30T13:56:59;5.25;;;1.65;;
73296;SDS011;61524;50.938;11.396;2023-04-30T13:59:24;3.65;;;1.40;;
73296;SDS011;61524;50.938;11.396;2023-04-30T14:01:50;2.85;;;1.10;;
73296;SDS011;61524;50.938;11.396;2023-04-30T14:04:15;4.45;;;1.50;;
73296;SDS011;61524;50.938;11.396;2023-04-30T14:06:41;4.82;;;1.63;;
73296;SDS011;61524;50.938;11.396;2023-04-30T14:09:07;5.82;;;1.60;;
73296;SDS011;61524;50.938;11.396;2023-04-30T14:11:32;2.90;;;1.52;;
73296;SDS011;61524;50.938;11.396;2023-04-30T14:13:58;6.93;;;2.00;;
73296;SDS011;61524;50.938;11.396;2023-04-30T14:16:24;3.08;;;1.10;;
73296;SDS011;61524;50.938;11.396;2023-04-30T14:18:49;3.95;;;1.17;;
73296;SDS011;61524;50.938;11.396;2023-04-30T14:21:15;5.68;;;1.42;;
73296;SDS011;61524;50.938;11.396;2023-04-30T14:23:40;2.78;;;0.98;;
73296;SDS011;61524;50.938;11.396;2023-04-30T14:26:06;3.50;;;1.10;;
73296;SDS011;61524;50.938;11.396;2023-04-30T14:28:31;4.05;;;1.20;;
73296;SDS011;61524;50.938;11.396;2023-04-30T14:30:57;1.92;;;0.80;;
73296;SDS011;61524;50.938;11.396;2023-04-30T14:33:22;2.97;;;1.00;;
73296;SDS011;61524;50.938;11.396;2023-04-30T14:35:48;4.60;;;1.10;;
73296;SDS011;61524;50.938;11.396;2023-04-30T14:38:13;2.17;;;1.02;;
73296;SDS011;61524;50.938;11.396;2023-04-30T14:40:39;3.00;;;1.13;;
73296;SDS011;61524;50.938;11.396;2023-04-30T14:43:05;3.72;;;1.00;;
73296;SDS011;61524;50.938;11.396;2023-04-30T14:45:33;5.43;;;1.42;;
73296;SDS011;61524;50.938;11.396;2023-04-30T14:47:59;5.32;;;1.50;;
73296;SDS011;61524;50.938;11.396;2023-04-30T14:50:25;6.70;;;1.27;;
73296;SDS011;61524;50.938;11.396;2023-04-30T14:52:51;3.28;;;1.00;;
73296;SDS011;61524;50.938;11.396;2023-04-30T14:55:16;3.33;;;1.15;;
73296;SDS011;61524;50.938;11.396;2023-04-30T14:57:42;2.83;;;1.00;;
73296;SDS011;61524;50.938;11.396;2023-04-30T15:00:07;2.75;;;1.00;;
73296;SDS011;61524;50.938;11.396;2023-04-30T15:02:34;2.47;;;1.15;;
73296;SDS011;61524;50.938;11.396;2023-04-30T15:04:59;4.38;;;1.40;;
73296;SDS011;61524;50.938;11.396;2023-04-30T15:07:25;4.30;;;1.25;;